createdAt,value
2023-05-14T00:00:41.453Z,3.83
2023-05-14T00:03:09.467Z,3.70
2023-05-14T00:05:37.494Z,3.85
2023-05-14T00:08:06.111Z,4.15
2023-05-14T00:10:34.069Z,3.70
2023-05-14T00:13:02.229Z,3.47
2023-05-14T00:15:31.741Z,3.75
2023-05-14T00:18:02.272Z,3.47
2023-05-14T00:20:30.253Z,3.53
2023-05-14T00:22:58.254Z,3.92
2023-05-14T00:25:26.165Z,3.35
2023-05-14T00:27:54.039Z,3.42
2023-05-14T00:30:22.228Z,3.22
2023-05-14T00:32:50.346Z,3.17
2023-05-14T00:35:21.285Z,3.33
2023-05-14T00:37:49.159Z,3.58
2023-05-14T00:40:17.570Z,3.67
2023-05-14T00:42:46.278Z,3.88
2023-05-14T00:45:14.199Z,3.47
2023-05-14T00:47:42.194Z,3.58
2023-05-14T00:50:11.430Z,3.47
2023-05-14T00:52:41.988Z,3.97
2023-05-14T00:55:12.862Z,3.28
2023-05-14T00:57:40.769Z,2.88
2023-05-14T01:00:10.220Z,3.25
2023-05-14T01:02:38.272Z,3.45
2023-05-14T01:05:07.363Z,3.03
2023-05-14T01:07:50.433Z,3.25
2023-05-14T01:10:25.482Z,3.03
2023-05-14T01:13:01.364Z,3.30
2023-05-14T01:15:31.976Z,3.45
2023-05-14T01:18:04.569Z,2.92
2023-05-14T01:20:32.478Z,3.25
2023-05-14T01:23:01.841Z,2.70
2023-05-14T01:25:30.849Z,2.42
2023-05-14T01:28:04.933Z,3.20
2023-05-14T01:30:36.756Z,2.70
2023-05-14T01:33:08.550Z,2.90
2023-05-14T01:35:36.821Z,2.80
2023-05-14T01:38:09.250Z,2.70
2023-05-14T01:40:37.936Z,2.75
2023-05-14T01:43:06.676Z,3.08
2023-05-14T01:45:37.284Z,2.90
2023-05-14T01:48:05.614Z,3.00
2023-05-14T01:50:33.700Z,2.78
2023-05-14T01:53:01.687Z,2.70
2023-05-14T01:55:31.148Z,2.85
2023-05-14T01:57:59.034Z,3.15
2023-05-14T02:00:27.350Z,2.90
2023-05-14T02:02:55.328Z,2.78
2023-05-14T02:05:24.594Z,2.95
2023-05-14T02:07:54.832Z,2.78
2023-05-14T02:10:23.009Z,3.13
2023-05-14T02:12:52.924Z,2.67
2023-05-14T02:15:20.885Z,2.78
2023-05-14T02:17:48.839Z,2.67
2023-05-14T02:20:17.088Z,3.53
2023-05-14T02:22:46.218Z,2.78
2023-05-14T02:25:14.107Z,2.55
2023-05-14T02:27:42.220Z,2.15
2023-05-14T02:30:12.976Z,2.97
2023-05-14T02:32:41.359Z,3.00
2023-05-14T02:35:10.308Z,2.22
2023-05-14T02:37:38.627Z,2.80
2023-05-14T02:40:08.131Z,2.53
2023-05-14T02:42:36.320Z,2.45
2023-05-14T02:45:04.448Z,2.50
2023-05-14T02:47:37.508Z,2.72
2023-05-14T02:50:07.168Z,2.70
2023-05-14T02:52:35.334Z,2.42
2023-05-14T02:55:03.498Z,2.58
2023-05-14T02:57:31.892Z,2.70
2023-05-14T02:59:59.804Z,2.50
2023-05-14T03:02:28.289Z,2.85
2023-05-14T03:04:58.187Z,2.80
2023-05-14T03:07:26.111Z,2.58
2023-05-14T03:09:54.028Z,2.30
2023-05-14T03:12:22.181Z,2.38
2023-05-14T03:14:50.099Z,2.67
2023-05-14T03:17:18.010Z,2.40
2023-05-14T03:19:45.926Z,2.40
2023-05-14T03:22:15.637Z,2.30
2023-05-14T03:24:43.508Z,2.42
2023-05-14T03:27:11.703Z,2.38
2023-05-14T03:29:39.627Z,2.72
2023-05-14T03:32:08.088Z,2.60
2023-05-14T03:34:36.736Z,3.00
2023-05-14T03:37:04.911Z,2.60
2023-05-14T03:39:34.346Z,2.67
2023-05-14T03:42:02.402Z,2.58
2023-05-14T03:44:30.300Z,2.85
2023-05-14T03:46:58.276Z,2.30
2023-05-14T03:49:26.353Z,2.22
2023-05-14T03:51:54.246Z,2.70
2023-05-14T03:54:22.506Z,2.53
2023-05-14T03:56:51.837Z,2.60
2023-05-14T03:59:19.707Z,2.45
2023-05-14T04:01:47.591Z,3.20
2023-05-14T04:04:15.633Z,2.47
2023-05-14T04:06:43.582Z,2.40
2023-05-14T04:09:11.871Z,2.63
2023-05-14T04:11:39.853Z,2.92
2023-05-14T04:14:09.311Z,2.92
2023-05-14T04:16:37.273Z,2.60
2023-05-14T04:19:06.058Z,3.00
2023-05-14T04:21:33.980Z,2.88
2023-05-14T04:24:02.187Z,2.80
2023-05-14T04:26:30.098Z,2.70
2023-05-14T04:28:58.238Z,2.50
2023-05-14T04:31:27.603Z,2.38
2023-05-14T04:33:55.552Z,2.78
2023-05-14T04:36:23.393Z,3.17
2023-05-14T04:38:51.575Z,2.85
2023-05-14T04:41:19.453Z,3.00
2023-05-14T04:43:50.950Z,3.33
2023-05-14T04:46:19.188Z,3.10
2023-05-14T04:48:48.609Z,3.17
2023-05-14T04:51:16.481Z,3.03
2023-05-14T04:53:44.337Z,2.80
2023-05-14T04:56:12.267Z,3.10
2023-05-14T04:58:40.219Z,2.90
2023-05-14T05:01:08.257Z,3.15
2023-05-14T05:03:36.162Z,2.65
2023-05-14T05:06:05.727Z,2.67
2023-05-14T05:08:33.693Z,2.70
2023-05-14T05:11:01.562Z,2.85
2023-05-14T05:13:29.457Z,2.70
2023-05-14T05:15:57.344Z,2.72
2023-05-14T05:18:25.283Z,2.75
2023-05-14T05:20:53.203Z,2.63
2023-05-14T05:23:22.489Z,3.10
2023-05-14T05:25:50.503Z,2.72
2023-05-14T05:28:18.355Z,2.50
2023-05-14T05:30:46.333Z,2.60
2023-05-14T05:33:14.351Z,2.50
2023-05-14T05:35:43.229Z,3.22
2023-05-14T05:38:11.167Z,2.95
2023-05-14T05:40:41.091Z,2.60
2023-05-14T05:43:09.063Z,2.60
2023-05-14T05:45:36.952Z,2.40
2023-05-14T05:48:05.541Z,2.90
2023-05-14T05:50:33.486Z,2.90
2023-05-14T05:53:01.499Z,2.90
2023-05-14T05:55:29.855Z,2.90
2023-05-14T05:57:59.506Z,2.90
2023-05-14T06:00:27.570Z,2.70
2023-05-14T06:02:56.158Z,2.95
2023-05-14T06:05:24.262Z,3.22
2023-05-14T06:07:53.339Z,2.30
2023-05-14T06:10:21.851Z,2.95
2023-05-14T06:12:50.056Z,3.05
2023-05-14T06:15:19.726Z,2.63
2023-05-14T06:17:47.680Z,4.20
2023-05-14T06:20:15.679Z,2.75
2023-05-14T06:22:44.000Z,2.90
2023-05-14T06:25:12.773Z,2.80
2023-05-14T06:27:40.743Z,3.53
2023-05-14T06:30:10.998Z,2.58
2023-05-14T06:32:40.398Z,3.08
2023-05-14T06:35:09.436Z,2.95
2023-05-14T06:37:37.373Z,2.70
2023-05-14T06:40:08.663Z,3.22
2023-05-14T06:42:36.668Z,2.63
2023-05-14T06:45:06.743Z,3.00
2023-05-14T06:47:34.934Z,3.08
2023-05-14T06:50:04.639Z,2.30
2023-05-14T06:52:32.600Z,3.08
2023-05-14T06:55:00.486Z,2.40
2023-05-14T06:57:28.398Z,2.95
2023-05-14T06:59:57.471Z,3.60
2023-05-14T07:02:25.418Z,2.13
2023-05-14T07:04:53.355Z,2.58
2023-05-14T07:07:23.287Z,2.60
2023-05-14T07:09:51.312Z,2.50
2023-05-14T07:12:19.354Z,2.38
2023-05-14T07:14:47.286Z,2.60
2023-05-14T07:17:15.217Z,2.65
2023-05-14T07:19:43.251Z,2.40
2023-05-14T07:22:11.147Z,2.60
2023-05-14T07:24:40.454Z,2.35
2023-05-14T07:27:08.961Z,2.33
2023-05-14T07:29:36.853Z,2.30
2023-05-14T07:32:05.083Z,2.00
2023-05-14T07:34:32.961Z,2.72
2023-05-14T07:37:01.310Z,2.58
2023-05-14T07:39:29.256Z,2.50
2023-05-14T07:41:58.556Z,2.17
2023-05-14T07:44:26.627Z,2.10
2023-05-14T07:46:56.751Z,2.75
2023-05-14T07:49:24.748Z,2.10
2023-05-14T07:51:52.646Z,2.05
2023-05-14T07:54:20.696Z,1.95
2023-05-14T07:56:48.545Z,2.47
2023-05-14T07:59:17.777Z,1.88
2023-05-14T08:01:52.524Z,1.80
2023-05-14T08:04:20.493Z,1.92
2023-05-14T08:06:49.679Z,2.20
2023-05-14T08:09:17.561Z,2.20
2023-05-14T08:11:45.472Z,2.30
2023-05-14T08:14:13.479Z,1.80
2023-05-14T08:16:44.639Z,1.60
2023-05-14T08:19:16.370Z,1.63
2023-05-14T08:21:44.406Z,1.90
2023-05-14T08:24:12.333Z,2.00
2023-05-14T08:26:40.341Z,2.00
2023-05-14T08:29:10.008Z,1.73
2023-05-14T08:31:38.913Z,2.05
2023-05-14T08:34:08.216Z,2.05
2023-05-14T08:36:36.129Z,1.90
2023-05-14T08:39:04.124Z,1.70
2023-05-14T08:41:32.723Z,1.67
2023-05-14T08:44:09.811Z,2.00
2023-05-14T08:46:38.975Z,1.73
2023-05-14T08:49:19.227Z,1.55
2023-05-14T08:51:48.384Z,2.05
2023-05-14T08:54:17.964Z,1.80
2023-05-14T08:56:47.115Z,1.95
2023-05-14T08:59:18.801Z,1.85
2023-05-14T09:01:49.487Z,1.55
2023-05-14T09:04:22.045Z,2.92
2023-05-14T09:06:51.790Z,2.00
2023-05-14T09:09:22.373Z,1.92
2023-05-14T09:11:51.998Z,1.70
2023-05-14T09:14:22.179Z,2.10
2023-05-14T09:16:51.765Z,1.83
2023-05-14T09:19:21.968Z,2.10
2023-05-14T09:21:51.216Z,1.92
2023-05-14T09:24:23.886Z,2.10
2023-05-14T09:26:53.465Z,1.50
2023-05-14T09:29:21.756Z,1.73
2023-05-14T09:31:54.769Z,1.80
2023-05-14T09:34:28.902Z,1.47
2023-05-14T09:36:58.647Z,1.55
2023-05-14T09:39:31.023Z,1.70
2023-05-14T09:42:01.729Z,1.67
2023-05-14T09:44:31.780Z,1.50
2023-05-14T09:47:04.990Z,1.83
2023-05-14T09:49:36.713Z,1.50
2023-05-14T09:52:08.350Z,1.55
2023-05-14T09:54:39.724Z,1.52
2023-05-14T09:57:17.318Z,1.80
2023-05-14T09:59:48.068Z,1.40
2023-05-14T10:02:23.000Z,1.65
2023-05-14T10:04:54.400Z,1.60
2023-05-14T10:07:27.690Z,1.58
2023-05-14T10:10:00.644Z,1.52
2023-05-14T10:12:32.986Z,1.33
2023-05-14T10:15:04.678Z,2.30
2023-05-14T10:17:36.714Z,2.10
2023-05-14T10:20:13.428Z,1.60
2023-05-14T10:22:41.502Z,1.92
2023-05-14T10:25:10.589Z,1.77
2023-05-14T10:27:38.828Z,1.83
2023-05-14T10:30:12.916Z,1.67
2023-05-14T10:32:41.870Z,1.77
2023-05-14T10:35:25.332Z,1.85
2023-05-14T10:37:53.233Z,1.60
2023-05-14T10:40:24.649Z,2.13
2023-05-14T10:42:53.716Z,2.00
2023-05-14T10:45:24.037Z,1.90
2023-05-14T10:47:52.057Z,1.83
2023-05-14T10:50:23.628Z,2.58
2023-05-14T10:52:52.511Z,2.28
2023-05-14T10:55:22.831Z,1.83
2023-05-14T10:57:50.889Z,1.83
2023-05-14T11:00:19.624Z,1.80
2023-05-14T11:02:47.729Z,1.80
2023-05-14T11:05:19.312Z,1.80
2023-05-14T11:07:50.211Z,3.33
2023-05-14T11:10:20.042Z,1.88
2023-05-14T11:13:00.513Z,2.15
2023-05-14T11:15:32.154Z,1.63
2023-05-14T11:18:00.134Z,1.58
2023-05-14T11:20:30.480Z,1.70
2023-05-14T11:23:00.322Z,1.58
2023-05-14T11:25:28.242Z,1.67
2023-05-14T11:27:58.801Z,2.00
2023-05-14T11:30:26.721Z,1.83
2023-05-14T11:32:54.841Z,1.60
2023-05-14T11:35:24.145Z,1.83
2023-05-14T11:37:55.103Z,1.73
2023-05-14T11:40:24.833Z,1.75
2023-05-14T11:42:53.246Z,1.88
2023-05-14T11:45:26.661Z,2.33
2023-05-14T11:47:54.886Z,2.35
2023-05-14T11:50:23.730Z,1.95
2023-05-14T11:52:57.158Z,1.80
2023-05-14T11:55:26.636Z,2.00
2023-05-14T11:57:55.242Z,1.95
2023-05-14T12:00:24.565Z,1.67
2023-05-14T12:02:53.110Z,1.60
2023-05-14T12:05:21.823Z,1.90
2023-05-14T12:07:50.050Z,1.98
2023-05-14T12:10:18.237Z,2.30
2023-05-14T12:12:49.213Z,2.53
2023-05-14T12:15:18.093Z,2.20
2023-05-14T12:17:51.653Z,2.08
2023-05-14T12:20:20.031Z,2.10
2023-05-14T12:22:48.052Z,2.00
2023-05-14T12:25:16.019Z,1.85
2023-05-14T12:27:47.031Z,1.70
2023-05-14T12:32:46.508Z,1.90
2023-05-14T12:35:16.230Z,2.03
2023-05-14T12:37:44.123Z,1.60
2023-05-14T12:40:15.209Z,1.50
2023-05-14T12:42:43.258Z,1.40
2023-05-14T12:45:13.113Z,1.88
2023-05-14T12:47:41.058Z,2.35
2023-05-14T12:50:09.794Z,1.73
2023-05-14T12:52:39.716Z,1.40
2023-05-14T12:55:09.140Z,1.52
2023-05-14T12:57:38.845Z,1.73
2023-05-14T13:00:13.988Z,1.80
2023-05-14T13:05:13.000Z,1.85
2023-05-14T13:07:41.451Z,1.60
2023-05-14T13:10:10.265Z,1.38
2023-05-14T13:12:42.502Z,1.65
2023-05-14T13:15:11.742Z,1.90
2023-05-14T13:17:41.204Z,1.50
2023-05-14T13:20:13.527Z,1.92
2023-05-14T13:22:41.412Z,1.92
2023-05-14T13:25:10.647Z,1.83
2023-05-14T13:28:04.382Z,1.60
2023-05-14T13:30:32.661Z,1.80
2023-05-14T13:33:00.727Z,2.10
2023-05-14T13:35:30.060Z,2.10
2023-05-14T13:37:57.997Z,2.38
2023-05-14T13:40:25.975Z,2.05
2023-05-14T13:42:53.882Z,1.67
2023-05-14T13:45:21.831Z,2.28
2023-05-14T13:47:51.501Z,1.67
2023-05-14T13:50:19.695Z,2.50
2023-05-14T13:52:52.132Z,1.80
2023-05-14T13:55:23.072Z,1.80
2023-05-14T13:57:51.406Z,1.75
2023-05-14T14:00:21.272Z,1.95
2023-05-14T14:02:49.233Z,1.83
2023-05-14T14:05:17.229Z,2.22
2023-05-14T14:07:46.130Z,1.90
2023-05-14T14:10:16.376Z,1.63
2023-05-14T14:12:44.343Z,1.50
2023-05-14T14:15:12.608Z,1.80
2023-05-14T14:17:41.865Z,1.67
2023-05-14T14:20:10.792Z,1.55
2023-05-14T14:22:38.888Z,1.58
2023-05-14T14:25:08.422Z,1.55
2023-05-14T14:27:38.775Z,1.50
2023-05-14T14:30:09.440Z,1.85
2023-05-14T14:32:37.343Z,1.60
2023-05-14T14:35:05.951Z,1.85
2023-05-14T14:37:33.836Z,2.30
2023-05-14T14:40:03.804Z,1.63
2023-05-14T14:42:31.820Z,1.70
2023-05-14T14:45:01.139Z,1.55
2023-05-14T14:47:30.123Z,1.60
2023-05-14T14:49:58.402Z,1.27
2023-05-14T14:52:27.151Z,1.50
2023-05-14T14:54:56.128Z,1.58
2023-05-14T14:57:24.034Z,1.77
2023-05-14T14:59:52.021Z,1.70
2023-05-14T15:02:21.518Z,1.60
2023-05-14T15:04:49.523Z,1.50
2023-05-14T15:07:18.615Z,1.83
2023-05-14T15:09:46.635Z,1.55
2023-05-14T15:12:14.661Z,1.60
2023-05-14T15:14:42.592Z,1.55
2023-05-14T15:17:10.823Z,1.70
2023-05-14T15:19:40.258Z,1.42
2023-05-14T15:22:08.283Z,1.90
2023-05-14T15:24:36.197Z,1.40
2023-05-14T15:27:04.112Z,1.63
2023-05-14T15:29:33.776Z,1.90
2023-05-14T15:32:04.434Z,2.30
2023-05-14T15:34:32.390Z,1.70
2023-05-14T15:37:01.691Z,1.55
2023-05-14T15:39:31.346Z,1.98
2023-05-14T15:41:59.377Z,1.85
2023-05-14T15:44:27.866Z,1.58
2023-05-14T15:46:55.738Z,1.80
2023-05-14T15:49:23.661Z,1.63
2023-05-14T15:51:51.662Z,1.75
2023-05-14T15:54:21.474Z,1.65
2023-05-14T15:56:49.750Z,1.77
2023-05-14T15:59:18.190Z,1.58
2023-05-14T16:01:46.256Z,1.90
2023-05-14T16:04:14.313Z,1.63
2023-05-14T16:06:44.764Z,1.70
2023-05-14T16:09:12.829Z,1.60
2023-05-14T16:11:42.157Z,1.67
2023-05-14T16:14:10.498Z,1.80
2023-05-14T16:16:38.599Z,1.70
2023-05-14T16:19:06.648Z,2.08
2023-05-14T16:21:34.966Z,1.75
2023-05-14T16:24:03.186Z,1.77
2023-05-14T16:26:31.616Z,1.70
2023-05-14T16:29:02.239Z,1.73
2023-05-14T16:31:31.376Z,2.00
2023-05-14T16:33:59.865Z,1.50
2023-05-14T16:36:29.256Z,1.80
2023-05-14T16:39:07.314Z,1.98
2023-05-14T16:41:36.316Z,1.63
2023-05-14T16:44:06.309Z,1.65
2023-05-14T16:46:34.733Z,2.03
2023-05-14T16:49:03.253Z,1.73
2023-05-14T16:51:31.670Z,1.88
2023-05-14T16:53:59.690Z,1.80
2023-05-14T16:56:27.743Z,1.65
2023-05-14T16:58:55.704Z,2.10
2023-05-14T17:01:25.077Z,1.88
2023-05-14T17:03:53.119Z,2.13
2023-05-14T17:06:21.039Z,1.90
2023-05-14T17:08:49.001Z,1.63
2023-05-14T17:11:18.999Z,2.00
2023-05-14T17:13:46.994Z,2.17
2023-05-14T17:16:15.306Z,2.00
2023-05-14T17:18:45.696Z,1.83
2023-05-14T17:21:14.035Z,1.80
2023-05-14T17:23:42.325Z,1.58
2023-05-14T17:26:11.923Z,1.75
2023-05-14T17:28:39.818Z,1.88
2023-05-14T17:31:07.843Z,1.77
2023-05-14T17:33:36.015Z,1.70
2023-05-14T17:36:06.766Z,2.00
2023-05-14T17:38:35.046Z,2.33
2023-05-14T17:41:03.011Z,1.88
2023-05-14T17:43:30.940Z,1.58
2023-05-14T17:45:59.003Z,2.20
2023-05-14T17:48:27.141Z,2.10
2023-05-14T17:50:55.106Z,1.95
2023-05-14T17:53:26.409Z,2.35
2023-05-14T17:55:54.671Z,2.10
2023-05-14T17:58:22.977Z,2.47
2023-05-14T18:00:50.921Z,2.00
2023-05-14T18:03:20.533Z,2.58
2023-05-14T18:05:51.044Z,2.10
2023-05-14T18:08:19.022Z,2.20
2023-05-14T18:10:48.368Z,2.15
2023-05-14T18:13:16.360Z,2.05
2023-05-14T18:15:46.438Z,2.33
2023-05-14T18:18:17.070Z,2.22
2023-05-14T18:20:45.075Z,1.95
2023-05-14T18:23:13.006Z,2.40
2023-05-14T18:25:41.044Z,2.35
2023-05-14T18:28:11.321Z,2.20
2023-05-14T18:30:39.334Z,2.40
2023-05-14T18:33:07.326Z,2.60
2023-05-14T18:35:48.208Z,2.30
2023-05-14T18:38:17.832Z,2.33
2023-05-14T18:40:46.029Z,2.47
2023-05-14T18:43:16.581Z,2.33
2023-05-14T18:45:46.012Z,2.17
2023-05-14T18:48:14.358Z,2.30
2023-05-14T18:50:42.407Z,2.40
2023-05-14T18:53:10.393Z,2.15
2023-05-14T18:55:38.466Z,2.28
2023-05-14T18:58:06.401Z,2.58
2023-05-14T19:00:36.038Z,2.50
2023-05-14T19:03:04.091Z,2.80
2023-05-14T19:05:32.183Z,2.40
2023-05-14T19:08:00.859Z,2.40
2023-05-14T19:10:28.849Z,2.45
2023-05-14T19:12:57.676Z,2.22
2023-05-14T19:15:26.134Z,2.75
2023-05-14T19:17:55.863Z,2.88
2023-05-14T19:20:23.838Z,2.30
2023-05-14T19:22:51.752Z,2.80
2023-05-14T19:25:21.697Z,2.72
2023-05-14T19:27:51.026Z,2.22
2023-05-14T19:30:22.795Z,2.45
2023-05-14T19:32:50.791Z,2.80
2023-05-14T19:35:20.888Z,2.92
2023-05-14T19:37:50.802Z,2.88
2023-05-14T19:40:19.157Z,4.25
2023-05-14T19:42:47.232Z,3.13
2023-05-14T19:45:15.369Z,3.17
2023-05-14T19:47:43.785Z,3.17
2023-05-14T19:50:15.785Z,2.95
2023-05-14T19:52:45.200Z,3.20
2023-05-14T19:55:13.221Z,2.90
2023-05-14T19:57:41.212Z,3.13
2023-05-14T20:00:10.512Z,3.42
2023-05-14T20:02:41.979Z,2.70
2023-05-14T20:05:10.706Z,2.97
2023-05-14T20:07:40.251Z,3.45
2023-05-14T20:10:12.783Z,2.95
2023-05-14T20:12:40.749Z,4.57
2023-05-14T20:15:10.442Z,4.78
2023-05-14T20:17:38.893Z,3.45
2023-05-14T20:20:09.713Z,4.32
2023-05-14T20:22:38.220Z,3.95
2023-05-14T20:25:07.081Z,4.18
2023-05-14T20:27:36.426Z,3.78
2023-05-14T20:30:04.887Z,3.58
2023-05-14T20:32:32.878Z,4.40
2023-05-14T20:35:02.290Z,3.95
2023-05-14T20:37:31.215Z,3.72
2023-05-14T20:39:59.835Z,3.67
2023-05-14T20:42:32.968Z,4.68
2023-05-14T20:45:02.614Z,3.97
2023-05-14T20:47:31.894Z,3.90
2023-05-14T20:49:59.925Z,3.85
2023-05-14T20:52:28.068Z,4.10
2023-05-14T20:54:56.085Z,4.20
2023-05-14T20:57:24.002Z,4.75
2023-05-14T20:59:52.063Z,3.75
2023-05-14T21:02:22.148Z,3.90
2023-05-14T21:04:50.452Z,4.00
2023-05-14T21:07:18.472Z,4.00
2023-05-14T21:09:52.075Z,3.45
2023-05-14T21:12:20.007Z,4.35
2023-05-14T21:14:47.939Z,3.75
2023-05-14T21:17:16.023Z,3.33
2023-05-14T21:19:45.388Z,3.83
2023-05-14T21:22:14.012Z,3.78
2023-05-14T21:24:41.997Z,3.22
2023-05-14T21:27:10.151Z,3.90
2023-05-14T21:29:38.562Z,3.80
2023-05-14T21:32:07.232Z,3.53
2023-05-14T21:34:35.181Z,4.22
2023-05-14T21:37:04.539Z,3.92
2023-05-14T21:39:32.459Z,3.95
2023-05-14T21:42:00.376Z,4.65
2023-05-14T21:44:28.358Z,4.65
2023-05-14T21:46:56.329Z,4.13
2023-05-14T21:49:24.247Z,3.47
2023-05-14T21:51:54.593Z,3.65
2023-05-14T21:54:23.872Z,4.38
2023-05-14T21:56:52.302Z,3.97
2023-05-14T21:59:20.300Z,3.63
2023-05-14T22:02:05.640Z,5.32
2023-05-14T22:04:35.186Z,4.47
2023-05-14T22:07:03.665Z,5.07
2023-05-14T22:09:32.944Z,5.32
2023-05-14T22:12:00.861Z,4.65
2023-05-14T22:14:28.747Z,4.10
2023-05-14T22:16:57.481Z,4.13
2023-05-14T22:19:26.681Z,3.88
2023-05-14T22:21:56.587Z,4.30
2023-05-14T22:24:24.615Z,4.57
2023-05-14T22:26:54.573Z,4.70
2023-05-14T22:29:22.451Z,4.22
2023-05-14T22:31:50.499Z,4.53
2023-05-14T22:34:19.227Z,3.70
2023-05-14T22:36:47.207Z,3.65
2023-05-14T22:39:15.114Z,4.03
2023-05-14T22:41:43.128Z,4.38
2023-05-14T22:44:15.456Z,4.10
2023-05-14T22:46:43.401Z,3.90
2023-05-14T22:49:11.523Z,3.92
2023-05-14T22:51:39.623Z,4.25
2023-05-14T22:54:07.766Z,4.43
2023-05-14T22:56:36.491Z,4.28
2023-05-14T22:59:04.554Z,4.50
2023-05-14T23:01:33.975Z,4.55
2023-05-14T23:04:01.935Z,4.43
2023-05-14T23:06:31.274Z,4.32
2023-05-14T23:08:59.249Z,4.22
2023-05-14T23:11:28.045Z,4.45
2023-05-14T23:13:56.412Z,3.95
2023-05-14T23:16:24.394Z,4.40
2023-05-14T23:18:53.829Z,4.28
2023-05-14T23:21:21.863Z,3.95
2023-05-14T23:23:49.748Z,3.95
2023-05-14T23:26:17.663Z,4.55
2023-05-14T23:28:47.238Z,4.80
2023-05-14T23:31:17.624Z,4.43
2023-05-14T23:33:46.307Z,3.53
2023-05-14T23:36:16.089Z,4.20
2023-05-14T23:38:44.232Z,4.55
2023-05-14T23:41:12.195Z,4.00
2023-05-14T23:43:40.138Z,4.05
2023-05-14T23:46:08.844Z,4.32
2023-05-14T23:48:36.782Z,4.30
2023-05-14T23:51:04.909Z,4.90
2023-05-14T23:53:34.234Z,4.68
2023-05-14T23:56:02.264Z,4.75
2023-05-14T23:58:31.104Z,4.55
